createdAt,value
2022-10-15T00:00:12.288Z,5.05
2022-10-15T00:02:57.615Z,5.10
2022-10-15T00:05:43.559Z,5.21
2022-10-15T00:08:28.919Z,5.28
2022-10-15T00:11:20.311Z,5.50
2022-10-15T00:14:06.485Z,5.71
2022-10-15T00:16:51.911Z,5.86
2022-10-15T00:19:37.727Z,5.88
2022-10-15T00:22:23.550Z,5.82
2022-10-15T00:25:10.120Z,5.72
2022-10-15T00:27:55.525Z,5.76
2022-10-15T00:30:41.112Z,5.80
2022-10-15T00:33:26.910Z,5.93
2022-10-15T00:36:16.517Z,5.96
2022-10-15T00:39:04.481Z,5.99
2022-10-15T00:41:50.295Z,6.04
2022-10-15T00:44:54.928Z,6.23
2022-10-15T00:47:48.565Z,6.47
2022-10-15T00:50:36.987Z,6.69
2022-10-15T00:53:23.137Z,6.94
2022-10-15T00:56:08.567Z,7.12
2022-10-15T00:58:55.604Z,7.23
2022-10-15T01:01:41.780Z,7.32
2022-10-15T01:04:28.237Z,7.38
2022-10-15T01:07:14.113Z,7.47
2022-10-15T01:10:00.301Z,7.59
2022-10-15T01:12:57.131Z,7.66
2022-10-15T01:15:58.106Z,7.78
2022-10-15T01:18:55.146Z,7.80
2022-10-15T01:21:46.976Z,7.83
2022-10-15T01:25:03.743Z,7.87
2022-10-15T01:28:00.916Z,7.95
2022-10-15T01:30:54.751Z,7.99
2022-10-15T01:33:51.735Z,7.97
2022-10-15T01:36:55.136Z,8.05
2022-10-15T01:40:13.349Z,8.07
2022-10-15T01:43:03.847Z,8.10
2022-10-15T01:46:16.910Z,8.11
2022-10-15T01:49:26.382Z,8.08
2022-10-15T01:52:18.823Z,8.05
2022-10-15T01:55:06.045Z,8.03
2022-10-15T01:57:58.233Z,8.00
2022-10-15T02:00:44.433Z,8.00
2022-10-15T02:03:30.151Z,8.04
2022-10-15T02:06:37.179Z,8.11
2022-10-15T02:10:03.404Z,8.13
2022-10-15T02:13:33.919Z,8.15
2022-10-15T02:16:29.604Z,8.13
2022-10-15T02:19:28.641Z,8.16
2022-10-15T02:22:26.882Z,8.22
2022-10-15T02:25:21.399Z,8.25
2022-10-15T02:28:09.066Z,8.30
2022-10-15T02:30:57.018Z,8.29
2022-10-15T02:33:44.756Z,8.33
2022-10-15T02:36:33.155Z,8.48
2022-10-15T02:39:24.838Z,8.67
2022-10-15T02:42:10.865Z,8.79
2022-10-15T02:44:56.482Z,8.84
2022-10-15T02:47:41.823Z,8.89
2022-10-15T02:50:27.096Z,8.90
2022-10-15T02:53:12.633Z,8.93
2022-10-15T02:55:59.960Z,8.95
2022-10-15T02:58:45.406Z,8.96
2022-10-15T03:01:31.416Z,8.84
2022-10-15T03:04:16.927Z,8.61
2022-10-15T03:07:03.171Z,8.37
2022-10-15T03:09:49.611Z,8.21
2022-10-15T03:12:35.262Z,8.04
2022-10-15T03:15:20.829Z,7.78
2022-10-15T03:18:07.396Z,7.46
2022-10-15T03:20:56.923Z,7.38
2022-10-15T03:23:42.993Z,7.20
2022-10-15T03:26:35.104Z,7.13
2022-10-15T03:29:20.472Z,7.02
2022-10-15T03:32:14.122Z,6.91
2022-10-15T03:35:00.010Z,6.81
2022-10-15T03:37:45.414Z,6.73
2022-10-15T03:40:32.164Z,6.63
2022-10-15T03:43:29.515Z,6.55
2022-10-15T03:46:18.811Z,6.48
2022-10-15T03:49:06.347Z,6.44
2022-10-15T03:51:51.601Z,6.46
2022-10-15T03:54:39.154Z,6.47
2022-10-15T03:57:24.492Z,6.47
2022-10-15T04:00:18.944Z,6.43
2022-10-15T04:03:06.491Z,6.34
2022-10-15T04:05:54.577Z,6.22
2022-10-15T04:08:44.008Z,6.10
2022-10-15T04:11:42.638Z,5.99
2022-10-15T04:14:29.079Z,5.85
2022-10-15T04:17:14.532Z,5.78
2022-10-15T04:20:05.173Z,5.71
2022-10-15T04:22:50.967Z,5.67
2022-10-15T04:25:39.792Z,5.65
2022-10-15T04:28:26.814Z,5.57
2022-10-15T04:31:12.585Z,5.54
2022-10-15T04:33:58.789Z,5.54
2022-10-15T04:36:45.000Z,5.55
2022-10-15T04:39:33.837Z,5.57
2022-10-15T04:42:20.329Z,5.61
2022-10-15T04:45:07.967Z,5.61
2022-10-15T04:47:53.453Z,5.58
2022-10-15T04:50:40.575Z,5.67
2022-10-15T04:53:44.541Z,5.71
2022-10-15T04:56:30.055Z,5.69
2022-10-15T04:59:15.904Z,5.70
2022-10-15T05:02:21.582Z,5.70
2022-10-15T05:05:13.053Z,5.77
2022-10-15T05:08:08.229Z,5.79
2022-10-15T05:11:23.108Z,5.82
2022-10-15T05:14:09.317Z,5.82
2022-10-15T05:16:55.190Z,5.85
2022-10-15T05:19:41.657Z,5.87
2022-10-15T05:22:35.306Z,5.91
2022-10-15T05:25:21.124Z,5.94
2022-10-15T05:28:08.068Z,5.89
2022-10-15T05:30:53.490Z,5.89
2022-10-15T05:33:39.275Z,5.94
2022-10-15T05:36:27.424Z,5.99
2022-10-15T05:39:14.821Z,5.96
2022-10-15T05:42:02.671Z,5.97
2022-10-15T05:44:56.066Z,5.98
2022-10-15T05:47:41.461Z,5.99
2022-10-15T05:50:35.983Z,5.99
2022-10-15T05:53:25.169Z,6.03
2022-10-15T05:56:15.857Z,6.04
2022-10-15T05:59:01.144Z,6.04
2022-10-15T06:01:46.644Z,5.99
2022-10-15T06:04:35.540Z,5.99
2022-10-15T06:07:21.643Z,6.01
2022-10-15T06:10:07.844Z,6.05
2022-10-15T06:12:53.680Z,6.08
2022-10-15T06:15:40.915Z,6.09
2022-10-15T06:18:27.481Z,6.05
2022-10-15T06:21:14.198Z,6.08
2022-10-15T06:23:59.651Z,6.11
2022-10-15T06:26:45.016Z,6.14
2022-10-15T06:29:30.229Z,6.08
2022-10-15T06:32:16.492Z,6.13
2022-10-15T06:35:01.754Z,6.13
2022-10-15T06:37:47.387Z,6.16
2022-10-15T06:40:33.013Z,6.24
2022-10-15T06:43:18.396Z,6.19
2022-10-15T06:46:05.359Z,6.21
2022-10-15T06:48:51.985Z,6.22
2022-10-15T06:51:37.806Z,6.26
2022-10-15T06:54:23.449Z,6.32
2022-10-15T06:57:08.775Z,6.34
2022-10-15T06:59:54.658Z,6.37
2022-10-15T07:02:40.288Z,6.36
2022-10-15T07:05:25.874Z,6.38
2022-10-15T07:08:15.499Z,6.36
2022-10-15T07:11:06.193Z,6.38
2022-10-15T07:13:51.518Z,6.37
2022-10-15T07:16:37.446Z,6.39
2022-10-15T07:19:22.819Z,6.46
2022-10-15T07:22:08.145Z,6.51
2022-10-15T07:24:53.759Z,6.52
2022-10-15T07:27:39.543Z,6.48
2022-10-15T07:30:29.253Z,6.55
2022-10-15T07:33:15.018Z,6.60
2022-10-15T07:36:12.869Z,6.64
2022-10-15T07:38:59.591Z,6.68
2022-10-15T07:41:46.178Z,6.73
2022-10-15T07:44:31.744Z,6.73
2022-10-15T07:47:18.239Z,6.74
2022-10-15T07:50:03.939Z,6.72
2022-10-15T07:52:49.315Z,6.78
2022-10-15T07:55:35.296Z,6.86
2022-10-15T07:58:20.838Z,6.91
2022-10-15T08:01:11.323Z,6.94
2022-10-15T08:03:57.010Z,6.93
2022-10-15T08:06:43.772Z,6.98
2022-10-15T08:09:29.370Z,7.03
2022-10-15T08:12:14.640Z,7.14
2022-10-15T08:14:59.966Z,7.20
2022-10-15T08:17:45.577Z,7.25
2022-10-15T08:20:33.982Z,7.29
2022-10-15T08:23:20.949Z,7.39
2022-10-15T08:26:07.187Z,7.55
2022-10-15T08:28:52.693Z,7.65
2022-10-15T08:31:40.249Z,7.92
2022-10-15T08:34:26.300Z,8.21
2022-10-15T08:37:11.593Z,8.46
2022-10-15T08:39:57.378Z,8.69
2022-10-15T08:42:46.075Z,8.78
2022-10-15T08:45:42.486Z,8.75
2022-10-15T08:48:44.618Z,8.76
2022-10-15T08:51:48.470Z,8.80
2022-10-15T08:54:36.329Z,8.82
2022-10-15T08:57:40.040Z,8.85
2022-10-15T09:00:36.131Z,9.03
2022-10-15T09:03:30.826Z,9.24
2022-10-15T09:06:20.964Z,9.38
2022-10-15T09:09:33.677Z,9.47
2022-10-15T09:12:53.230Z,9.45
2022-10-15T09:15:48.728Z,9.46
2022-10-15T09:18:36.183Z,9.47
2022-10-15T09:21:25.761Z,9.53
2022-10-15T09:24:13.475Z,9.64
2022-10-15T09:27:20.452Z,9.71
2022-10-15T09:30:13.540Z,9.75
2022-10-15T09:33:20.659Z,9.67
2022-10-15T09:36:28.309Z,9.55
2022-10-15T09:39:23.066Z,9.44
2022-10-15T09:42:30.674Z,9.31
2022-10-15T09:45:17.097Z,9.29
2022-10-15T09:48:06.311Z,9.36
2022-10-15T09:51:26.655Z,9.48
2022-10-15T09:54:45.429Z,9.62
2022-10-15T09:57:33.459Z,9.66
2022-10-15T10:00:19.126Z,9.70
2022-10-15T10:03:07.832Z,9.67
2022-10-15T10:06:25.732Z,9.56
2022-10-15T10:09:17.547Z,9.49
2022-10-15T10:12:06.601Z,9.49
2022-10-15T10:14:58.441Z,9.55
2022-10-15T10:17:55.875Z,9.62
2022-10-15T10:20:54.183Z,9.75
2022-10-15T10:23:39.936Z,9.86
2022-10-15T10:26:25.475Z,9.95
2022-10-15T10:29:33.690Z,10.03
2022-10-15T10:32:23.622Z,10.13
2022-10-15T10:35:21.705Z,10.23
2022-10-15T10:38:19.843Z,10.33
2022-10-15T10:41:09.837Z,10.46
2022-10-15T10:43:56.331Z,10.50
2022-10-15T10:46:41.976Z,10.51
2022-10-15T10:49:45.658Z,10.66
2022-10-15T10:52:38.013Z,10.85
2022-10-15T10:55:29.663Z,11.03
2022-10-15T10:58:23.536Z,11.19
2022-10-15T11:01:13.908Z,11.30
2022-10-15T11:03:59.138Z,11.33
2022-10-15T11:06:44.885Z,11.33
2022-10-15T11:09:55.302Z,11.25
2022-10-15T11:12:50.482Z,11.27
2022-10-15T11:15:42.449Z,11.24
2022-10-15T11:18:50.459Z,11.24
2022-10-15T11:21:45.236Z,11.30
2022-10-15T11:25:17.888Z,11.19
2022-10-15T11:28:23.799Z,11.17
2022-10-15T11:31:18.592Z,11.18
2022-10-15T11:34:40.837Z,11.28
2022-10-15T11:37:33.149Z,11.32
2022-10-15T11:40:32.650Z,11.39
2022-10-15T11:43:51.683Z,11.54
2022-10-15T11:47:00.732Z,11.57
2022-10-15T11:50:01.035Z,11.69
2022-10-15T11:52:55.488Z,11.76
2022-10-15T11:56:04.553Z,11.87
2022-10-15T11:59:20.292Z,11.98
2022-10-15T12:02:34.054Z,12.13
2022-10-15T12:05:28.885Z,12.23
2022-10-15T12:08:15.421Z,12.28
2022-10-15T12:11:13.069Z,12.31
2022-10-15T12:14:16.245Z,12.42
2022-10-15T12:17:14.631Z,12.29
2022-10-15T12:20:12.614Z,12.25
2022-10-15T12:23:00.448Z,12.29
2022-10-15T12:25:46.694Z,12.36
2022-10-15T12:28:33.375Z,12.38
2022-10-15T12:31:22.433Z,12.29
2022-10-15T12:34:39.848Z,12.14
2022-10-15T12:37:28.693Z,11.69
2022-10-15T12:40:23.149Z,11.09
2022-10-15T12:43:17.734Z,10.55
2022-10-15T12:46:08.973Z,10.08
2022-10-15T12:48:58.205Z,9.64
2022-10-15T12:51:43.509Z,9.28
2022-10-15T12:54:36.987Z,8.99
2022-10-15T12:57:31.499Z,8.80
2022-10-15T13:00:26.219Z,8.67
2022-10-15T13:03:20.800Z,8.58
2022-10-15T13:06:38.404Z,8.67
2022-10-15T13:09:29.421Z,9.11
2022-10-15T13:12:26.417Z,9.52
2022-10-15T13:15:16.298Z,9.68
2022-10-15T13:18:09.102Z,10.01
2022-10-15T13:20:56.526Z,10.16
2022-10-15T13:23:49.709Z,10.10
2022-10-15T13:26:35.222Z,10.11
2022-10-15T13:29:27.961Z,10.17
2022-10-15T13:32:15.545Z,10.32
2022-10-15T13:35:02.846Z,10.43
2022-10-15T13:37:49.026Z,10.55
2022-10-15T13:40:34.941Z,10.78
2022-10-15T13:43:25.316Z,10.71
2022-10-15T13:46:15.894Z,10.82
2022-10-15T13:49:10.474Z,10.98
2022-10-15T13:51:56.459Z,11.11
2022-10-15T13:54:46.670Z,11.27
2022-10-15T13:57:32.275Z,11.51
2022-10-15T14:00:29.607Z,11.42
2022-10-15T14:03:29.502Z,11.28
2022-10-15T14:06:21.965Z,11.24
2022-10-15T14:09:26.948Z,11.22
2022-10-15T14:12:12.849Z,11.40
2022-10-15T14:15:36.881Z,11.63
2022-10-15T14:18:34.571Z,11.77
2022-10-15T14:21:28.983Z,11.79
2022-10-15T14:24:16.126Z,11.71
2022-10-15T14:27:23.688Z,11.55
2022-10-15T14:30:15.466Z,11.48
2022-10-15T14:33:00.925Z,11.46
2022-10-15T14:36:02.940Z,11.50
2022-10-15T14:38:49.057Z,11.73
2022-10-15T14:41:34.689Z,11.99
2022-10-15T14:44:20.311Z,12.51
2022-10-15T14:47:05.556Z,12.88
2022-10-15T14:49:55.479Z,13.15
2022-10-15T14:52:46.618Z,13.27
2022-10-15T14:55:38.997Z,13.29
2022-10-15T14:58:26.592Z,13.16
2022-10-15T15:01:16.396Z,13.25
2022-10-15T15:04:01.627Z,13.13
2022-10-15T15:06:47.241Z,12.91
2022-10-15T15:09:32.687Z,12.69
2022-10-15T15:12:27.091Z,12.55
2022-10-15T15:15:19.646Z,12.29
2022-10-15T15:18:05.065Z,12.21
2022-10-15T15:20:51.742Z,11.96
2022-10-15T15:23:37.205Z,11.72
2022-10-15T15:26:24.733Z,11.62
2022-10-15T15:29:14.307Z,11.51
2022-10-15T15:31:59.700Z,11.42
2022-10-15T15:34:45.412Z,11.39
2022-10-15T15:37:31.027Z,11.37
2022-10-15T15:40:16.699Z,11.24
2022-10-15T15:43:02.718Z,11.07
2022-10-15T15:45:48.221Z,10.92
2022-10-15T15:48:34.318Z,10.81
2022-10-15T15:51:21.589Z,10.70
2022-10-15T15:54:09.903Z,10.65
2022-10-15T15:56:55.636Z,10.66
2022-10-15T15:59:41.260Z,10.71
2022-10-15T16:02:26.957Z,10.82
2022-10-15T16:05:15.981Z,10.87
2022-10-15T16:08:01.609Z,10.89
2022-10-15T16:10:47.069Z,10.89
2022-10-15T16:13:33.169Z,10.87
2022-10-15T16:16:19.605Z,10.81
2022-10-15T16:19:06.155Z,10.70
2022-10-15T16:21:52.056Z,10.63
2022-10-15T16:24:37.406Z,10.54
2022-10-15T16:27:23.122Z,10.43
2022-10-15T16:30:10.432Z,10.38
2022-10-15T16:32:56.510Z,10.30
2022-10-15T16:35:42.055Z,10.28
2022-10-15T16:38:27.533Z,10.29
2022-10-15T16:41:15.547Z,10.28
2022-10-15T16:44:01.213Z,10.25
2022-10-15T16:46:46.947Z,10.23
2022-10-15T16:49:32.580Z,10.24
2022-10-15T16:52:18.211Z,10.24
2022-10-15T16:55:03.996Z,10.20
2022-10-15T16:57:49.600Z,10.13
2022-10-15T17:00:35.011Z,10.11
2022-10-15T17:03:20.789Z,10.11
2022-10-15T17:06:28.193Z,10.06
2022-10-15T17:09:13.645Z,10.05
2022-10-15T17:11:59.586Z,9.99
2022-10-15T17:14:50.751Z,9.88
2022-10-15T17:17:36.235Z,9.73
2022-10-15T17:20:21.798Z,9.63
2022-10-15T17:23:07.251Z,9.53
2022-10-15T17:25:52.518Z,9.44
2022-10-15T17:28:38.366Z,9.38
2022-10-15T17:31:26.054Z,9.37
2022-10-15T17:34:11.957Z,9.37
2022-10-15T17:36:57.571Z,9.39
2022-10-15T17:39:43.050Z,9.44
2022-10-15T17:42:28.590Z,9.46
2022-10-15T17:45:13.912Z,9.36
2022-10-15T17:47:59.387Z,9.30
2022-10-15T17:50:45.522Z,9.29
2022-10-15T17:53:30.980Z,9.26
2022-10-15T17:56:26.086Z,9.24
2022-10-15T17:59:14.903Z,9.15
2022-10-15T18:02:01.087Z,9.10
2022-10-15T18:04:48.825Z,9.10
2022-10-15T18:07:34.605Z,9.01
2022-10-15T18:10:20.118Z,8.97
2022-10-15T18:13:06.672Z,8.95
2022-10-15T18:15:55.330Z,8.93
2022-10-15T18:18:41.034Z,8.89
2022-10-15T18:21:28.413Z,8.92
2022-10-15T18:24:14.200Z,8.89
2022-10-15T18:26:59.658Z,8.88
2022-10-15T18:29:44.891Z,8.77
2022-10-15T18:32:30.464Z,8.71
2022-10-15T18:35:15.672Z,8.68
2022-10-15T18:38:01.172Z,8.73
2022-10-15T18:40:47.276Z,8.73
2022-10-15T18:43:32.712Z,8.72
2022-10-15T18:46:18.461Z,8.65
2022-10-15T18:49:03.907Z,8.64
2022-10-15T18:51:54.182Z,8.64
2022-10-15T18:54:39.908Z,8.65
2022-10-15T18:57:25.370Z,8.69
2022-10-15T19:00:12.734Z,8.74
2022-10-15T19:02:58.370Z,8.69
2022-10-15T19:05:43.822Z,8.62
2022-10-15T19:08:31.148Z,8.57
2022-10-15T19:11:17.789Z,8.53
2022-10-15T19:14:04.301Z,8.58
2022-10-15T19:16:50.555Z,8.64
2022-10-15T19:19:36.606Z,8.66
2022-10-15T19:22:22.174Z,8.64
2022-10-15T19:25:08.327Z,8.69
2022-10-15T19:27:53.614Z,8.66
2022-10-15T19:30:39.424Z,8.60
2022-10-15T19:33:26.650Z,8.56
2022-10-15T19:36:19.861Z,8.55
2022-10-15T19:39:12.339Z,8.56
2022-10-15T19:41:57.992Z,8.56
2022-10-15T19:44:43.321Z,8.56
2022-10-15T19:47:28.937Z,8.57
2022-10-15T19:50:15.003Z,8.57
2022-10-15T19:53:00.395Z,8.51
2022-10-15T19:55:56.121Z,8.46
2022-10-15T19:58:41.747Z,8.39
2022-10-15T20:01:28.811Z,8.45
2022-10-15T20:04:14.271Z,8.43
2022-10-15T20:06:59.895Z,8.34
2022-10-15T20:09:45.103Z,8.38
2022-10-15T20:12:30.569Z,8.38
2022-10-15T20:15:15.973Z,8.38
2022-10-15T20:18:01.725Z,8.36
2022-10-15T20:20:48.257Z,8.35
2022-10-15T20:23:34.090Z,8.43
2022-10-15T20:26:19.833Z,8.44
2022-10-15T20:29:05.434Z,8.38
2022-10-15T20:31:51.675Z,8.33
2022-10-15T20:34:37.206Z,8.27
2022-10-15T20:37:22.646Z,8.20
2022-10-15T20:40:08.817Z,8.24
2022-10-15T20:42:54.782Z,8.32
2022-10-15T20:45:44.684Z,8.27
2022-10-15T20:48:32.297Z,8.19
2022-10-15T20:51:20.655Z,8.16
2022-10-15T20:54:09.396Z,8.15
2022-10-15T20:56:55.843Z,8.15
2022-10-15T20:59:41.443Z,8.16
2022-10-15T21:02:27.109Z,8.22
2022-10-15T21:05:12.775Z,8.26
2022-10-15T21:07:59.423Z,8.26
2022-10-15T21:10:44.765Z,8.26
2022-10-15T21:13:30.648Z,8.26
2022-10-15T21:16:16.592Z,8.27
2022-10-15T21:19:02.370Z,8.30
2022-10-15T21:21:47.861Z,8.31
2022-10-15T21:24:37.461Z,8.21
2022-10-15T21:27:23.086Z,8.12
2022-10-15T21:30:09.530Z,7.99
2022-10-15T21:32:55.232Z,7.85
2022-10-15T21:35:40.796Z,7.63
2022-10-15T21:38:26.507Z,7.45
2022-10-15T21:41:11.863Z,7.35
2022-10-15T21:43:58.738Z,7.24
2022-10-15T21:46:44.285Z,7.15
2022-10-15T21:49:29.469Z,7.10
2022-10-15T21:52:14.983Z,7.03
2022-10-15T21:55:00.313Z,6.99
2022-10-15T21:57:45.914Z,6.97
2022-10-15T22:00:31.229Z,6.91
2022-10-15T22:03:17.450Z,6.87
2022-10-15T22:06:04.020Z,6.87
2022-10-15T22:08:49.967Z,6.84
2022-10-15T22:11:38.076Z,6.87
2022-10-15T22:14:23.494Z,6.88
2022-10-15T22:17:08.701Z,6.86
2022-10-15T22:19:54.043Z,6.85
2022-10-15T22:22:39.525Z,6.80
2022-10-15T22:25:24.940Z,6.80
2022-10-15T22:28:10.584Z,6.80
2022-10-15T22:30:56.078Z,6.82
2022-10-15T22:33:43.004Z,6.82
2022-10-15T22:36:31.407Z,6.84
2022-10-15T22:39:18.069Z,6.84
2022-10-15T22:42:04.301Z,6.77
2022-10-15T22:44:49.812Z,6.76
2022-10-15T22:47:35.129Z,6.75
2022-10-15T22:50:20.643Z,6.71
2022-10-15T22:53:06.200Z,6.70
2022-10-15T22:56:02.462Z,6.67
2022-10-15T22:58:47.811Z,6.66
2022-10-15T23:01:34.979Z,6.62
2022-10-15T23:04:20.817Z,6.59
2022-10-15T23:07:06.599Z,6.56
2022-10-15T23:09:51.974Z,6.51
2022-10-15T23:12:38.348Z,6.50
2022-10-15T23:15:23.759Z,6.47
2022-10-15T23:18:09.041Z,6.48
2022-10-15T23:20:54.894Z,6.44
2022-10-15T23:23:40.782Z,6.39
2022-10-15T23:26:26.127Z,6.38
2022-10-15T23:29:23.199Z,6.40
2022-10-15T23:32:09.944Z,6.41
2022-10-15T23:34:55.490Z,6.39
2022-10-15T23:37:41.667Z,6.37
2022-10-15T23:40:27.167Z,6.37
2022-10-15T23:43:12.413Z,6.32
2022-10-15T23:45:58.389Z,6.30
2022-10-15T23:48:43.857Z,6.35
2022-10-15T23:51:30.994Z,6.37
2022-10-15T23:54:18.518Z,6.36
2022-10-15T23:57:04.094Z,6.32
2022-10-15T23:59:49.687Z,6.28
